createdAt,value
2018-03-14T00:02:12.068Z,99.90
2018-03-14T00:04:39.511Z,99.90
2018-03-14T00:07:06.942Z,99.90
2018-03-14T00:09:35.160Z,99.90
2018-03-14T00:12:02.594Z,99.90
2018-03-14T00:14:30.037Z,99.90
2018-03-14T00:16:58.232Z,99.90
2018-03-14T00:19:25.672Z,99.90
2018-03-14T00:21:53.128Z,99.90
2018-03-14T00:24:21.337Z,99.90
2018-03-14T00:26:48.763Z,99.90
2018-03-14T00:29:16.988Z,99.90
2018-03-14T00:31:44.399Z,99.90
2018-03-14T00:34:11.836Z,99.90
2018-03-14T00:36:40.046Z,99.90
2018-03-14T00:39:07.489Z,99.90
2018-03-14T00:41:34.931Z,99.90
2018-03-14T00:44:03.123Z,99.90
2018-03-14T00:46:30.561Z,99.90
2018-03-14T00:48:59.765Z,99.90
2018-03-14T00:51:27.965Z,99.90
2018-03-14T00:53:55.401Z,99.90
2018-03-14T00:56:22.840Z,99.90
2018-03-14T00:58:51.044Z,99.90
2018-03-14T01:01:18.472Z,99.90
2018-03-14T01:03:46.674Z,99.90
2018-03-14T01:06:14.116Z,99.90
2018-03-14T01:08:42.316Z,99.90
2018-03-14T01:11:11.784Z,99.90
2018-03-14T01:13:39.988Z,99.90
2018-03-14T01:16:07.460Z,99.90
2018-03-14T01:18:34.895Z,99.90
2018-03-14T01:21:02.323Z,99.90
2018-03-14T01:23:29.755Z,99.90
2018-03-14T01:25:57.187Z,99.90
2018-03-14T01:28:24.624Z,99.90
2018-03-14T01:30:52.063Z,99.90
2018-03-14T01:33:20.276Z,99.90
2018-03-14T01:35:47.712Z,99.90
2018-03-14T01:38:15.141Z,99.90
2018-03-14T01:40:42.567Z,99.90
2018-03-14T01:43:10.019Z,99.90
2018-03-14T01:45:37.444Z,99.90
2018-03-14T01:48:04.894Z,99.90
2018-03-14T01:50:32.320Z,99.90
2018-03-14T01:53:11.670Z,99.90
2018-03-14T01:55:39.869Z,99.90
2018-03-14T01:58:07.301Z,99.90
2018-03-14T02:00:35.516Z,99.90
2018-03-14T02:03:02.958Z,99.90
2018-03-14T02:05:30.396Z,99.90
2018-03-14T02:07:58.592Z,99.90
2018-03-14T02:10:34.821Z,99.90
2018-03-14T02:13:02.284Z,99.90
2018-03-14T02:15:30.499Z,99.90
2018-03-14T02:17:57.942Z,99.90
2018-03-14T02:20:25.545Z,99.90
2018-03-14T02:22:52.977Z,99.90
2018-03-14T02:25:20.432Z,99.90
2018-03-14T02:27:47.866Z,99.90
2018-03-14T02:30:16.074Z,99.90
2018-03-14T02:32:43.522Z,99.90
2018-03-14T02:35:10.974Z,99.90
2018-03-14T02:37:39.418Z,99.90
2018-03-14T02:40:07.634Z,99.90
2018-03-14T02:42:35.065Z,99.90
2018-03-14T02:45:02.505Z,99.90
2018-03-14T02:47:30.716Z,99.90
2018-03-14T02:49:58.155Z,99.90
2018-03-14T02:52:26.353Z,99.90
2018-03-14T02:54:53.792Z,99.90
2018-03-14T02:57:21.988Z,99.90
2018-03-14T02:59:49.435Z,99.90
2018-03-14T03:02:16.881Z,99.90
2018-03-14T03:04:44.321Z,99.90
2018-03-14T03:07:12.527Z,99.90
2018-03-14T03:09:39.962Z,99.90
2018-03-14T03:12:07.402Z,99.90
2018-03-14T03:14:34.847Z,99.90
2018-03-14T03:17:02.289Z,99.90
2018-03-14T03:19:29.738Z,99.90
2018-03-14T03:21:58.173Z,99.90
2018-03-14T03:24:26.373Z,99.90
2018-03-14T03:26:53.814Z,99.90
2018-03-14T03:29:21.254Z,99.90
2018-03-14T03:31:49.452Z,99.90
2018-03-14T03:34:16.901Z,99.90
2018-03-14T03:36:44.335Z,99.90
2018-03-14T03:39:12.551Z,99.90
2018-03-14T03:41:39.983Z,99.90
2018-03-14T03:44:07.428Z,99.90
2018-03-14T03:46:35.624Z,99.90
2018-03-14T03:49:03.073Z,99.90
2018-03-14T03:51:30.514Z,99.90
2018-03-14T03:53:58.727Z,99.90
2018-03-14T03:56:26.153Z,99.90
2018-03-14T03:58:54.360Z,99.90
2018-03-14T04:01:21.937Z,99.90
2018-03-14T04:03:49.377Z,99.90
2018-03-14T04:06:16.822Z,99.90
2018-03-14T04:08:44.309Z,99.90
2018-03-14T04:11:11.741Z,99.90
2018-03-14T04:13:39.187Z,99.90
2018-03-14T04:16:06.614Z,99.90
2018-03-14T04:18:34.050Z,99.90
2018-03-14T04:21:01.483Z,99.90
2018-03-14T04:23:28.926Z,99.90
2018-03-14T04:25:56.383Z,99.90
2018-03-14T04:28:23.812Z,99.90
2018-03-14T04:30:52.023Z,99.90
2018-03-14T04:33:19.454Z,99.90
2018-03-14T04:35:47.004Z,99.90
2018-03-14T04:38:15.278Z,99.90
2018-03-14T04:40:43.574Z,99.90
2018-03-14T04:43:11.150Z,99.90
2018-03-14T04:45:38.686Z,99.90
2018-03-14T04:48:06.889Z,99.90
2018-03-14T04:50:34.335Z,99.90
2018-03-14T04:53:01.765Z,99.90
2018-03-14T04:55:29.990Z,99.90
2018-03-14T04:57:57.431Z,99.90
2018-03-14T05:00:28.233Z,99.90
2018-03-14T05:02:57.591Z,99.90
2018-03-14T05:05:25.031Z,99.90
2018-03-14T05:07:52.460Z,99.90
2018-03-14T05:10:19.888Z,99.90
2018-03-14T05:12:47.322Z,99.90
2018-03-14T05:15:14.766Z,99.90
2018-03-14T05:17:42.196Z,99.90
2018-03-14T05:20:09.660Z,99.90
2018-03-14T05:22:37.092Z,99.90
2018-03-14T05:25:05.497Z,99.90
2018-03-14T05:27:32.941Z,99.90
2018-03-14T05:30:00.371Z,99.90
2018-03-14T05:32:27.810Z,99.90
2018-03-14T05:34:55.251Z,99.90
2018-03-14T05:37:22.692Z,99.90
2018-03-14T05:39:50.129Z,99.90
2018-03-14T05:42:17.610Z,99.90
2018-03-14T05:44:45.064Z,99.90
2018-03-14T05:47:12.525Z,99.90
2018-03-14T05:49:40.077Z,99.90
2018-03-14T05:52:07.527Z,99.90
2018-03-14T05:54:35.031Z,99.90
2018-03-14T05:57:02.523Z,99.90
2018-03-14T05:59:30.760Z,99.90
2018-03-14T06:01:58.209Z,99.90
2018-03-14T06:04:25.640Z,99.90
2018-03-14T06:06:53.082Z,99.90
2018-03-14T06:09:20.513Z,99.90
2018-03-14T06:11:48.728Z,99.90
2018-03-14T06:14:16.167Z,99.90
2018-03-14T06:16:43.607Z,99.90
2018-03-14T06:19:11.829Z,99.90
2018-03-14T06:21:39.276Z,99.90
2018-03-14T06:24:06.731Z,99.90
2018-03-14T06:26:34.165Z,99.90
2018-03-14T06:29:01.619Z,99.90
2018-03-14T06:31:29.800Z,99.90
2018-03-14T06:33:57.241Z,99.90
2018-03-14T06:36:25.498Z,99.90
2018-03-14T06:38:52.933Z,99.90
2018-03-14T06:41:20.370Z,99.90
2018-03-14T06:43:47.822Z,99.90
2018-03-14T06:46:15.258Z,99.90
2018-03-14T06:48:46.102Z,99.90
2018-03-14T06:51:13.537Z,99.90
2018-03-14T06:53:41.746Z,99.90
2018-03-14T06:56:09.172Z,99.90
2018-03-14T06:58:49.272Z,99.90
2018-03-14T07:01:22.611Z,99.90
2018-03-14T07:04:01.878Z,99.90
2018-03-14T07:06:29.314Z,99.90
2018-03-14T07:08:57.524Z,99.90
2018-03-14T07:11:24.958Z,99.90
2018-03-14T07:13:52.436Z,99.90
2018-03-14T07:16:19.868Z,99.90
2018-03-14T07:18:47.308Z,99.90
2018-03-14T07:21:15.516Z,99.90
2018-03-14T07:23:42.957Z,99.90
2018-03-14T07:26:10.398Z,99.90
2018-03-14T07:28:38.632Z,99.90
2018-03-14T07:31:06.073Z,99.90
2018-03-14T07:33:33.505Z,99.90
2018-03-14T07:36:00.955Z,99.90
2018-03-14T07:38:29.170Z,99.90
2018-03-14T07:40:56.617Z,99.90
2018-03-14T07:43:24.213Z,99.90
2018-03-14T07:45:51.652Z,99.90
2018-03-14T07:48:19.089Z,99.90
2018-03-14T07:50:46.536Z,99.90
2018-03-14T07:53:13.988Z,99.90
2018-03-14T07:55:41.438Z,99.90
2018-03-14T07:58:08.865Z,99.90
2018-03-14T08:00:36.310Z,99.90
2018-03-14T08:03:03.744Z,99.90
2018-03-14T08:05:31.201Z,99.90
2018-03-14T08:07:58.646Z,99.90
2018-03-14T08:10:26.089Z,99.90
2018-03-14T08:12:53.613Z,99.90
2018-03-14T08:15:21.062Z,99.90
2018-03-14T08:17:48.484Z,99.90
2018-03-14T08:20:16.026Z,99.90
2018-03-14T08:22:43.463Z,99.90
2018-03-14T08:25:11.769Z,99.90
2018-03-14T08:27:39.950Z,99.90
2018-03-14T08:30:07.475Z,99.90
2018-03-14T08:32:35.689Z,99.90
2018-03-14T08:35:03.128Z,99.90
2018-03-14T08:37:30.575Z,99.90
2018-03-14T08:39:58.109Z,99.90
2018-03-14T08:42:26.612Z,99.90
2018-03-14T08:44:54.091Z,99.90
2018-03-14T08:47:21.550Z,99.90
2018-03-14T08:49:48.987Z,99.90
2018-03-14T08:52:16.446Z,99.90
2018-03-14T08:54:43.881Z,99.90
2018-03-14T08:57:12.096Z,99.90
2018-03-14T08:59:39.537Z,99.90
2018-03-14T09:02:07.017Z,99.90
2018-03-14T09:04:34.493Z,99.90
2018-03-14T09:07:01.941Z,99.90
2018-03-14T09:09:29.395Z,99.90
2018-03-14T09:11:56.845Z,99.90
2018-03-14T09:14:24.304Z,99.90
2018-03-14T09:16:51.752Z,99.90
2018-03-14T09:19:19.210Z,99.90
2018-03-14T09:21:46.726Z,99.90
2018-03-14T09:24:14.944Z,99.80
2018-03-14T09:26:42.381Z,99.70
2018-03-14T09:29:09.822Z,99.90
2018-03-14T09:31:38.035Z,96.60
2018-03-14T09:34:05.472Z,96.60
2018-03-14T09:36:33.064Z,99.40
2018-03-14T09:39:00.565Z,97.80
2018-03-14T09:41:28.933Z,97.80
2018-03-14T09:43:57.901Z,99.90
2018-03-14T09:46:25.366Z,99.90
2018-03-14T09:48:52.804Z,98.90
2018-03-14T09:51:20.264Z,99.90
2018-03-14T09:53:47.707Z,99.90
2018-03-14T09:56:15.238Z,99.90
2018-03-14T09:58:43.449Z,99.80
2018-03-14T10:01:10.892Z,99.70
2018-03-14T10:03:38.382Z,99.90
2018-03-14T10:06:05.825Z,99.90
2018-03-14T10:08:33.282Z,98.40
2018-03-14T10:11:00.716Z,97.90
2018-03-14T10:13:28.160Z,99.90
2018-03-14T10:15:55.610Z,99.40
2018-03-14T10:18:23.818Z,97.10
2018-03-14T10:20:51.267Z,97.30
2018-03-14T10:23:18.713Z,98.00
2018-03-14T10:25:46.243Z,96.60
2018-03-14T10:28:14.357Z,91.90
2018-03-14T10:30:41.818Z,91.90
2018-03-14T10:33:09.261Z,94.20
2018-03-14T10:35:36.718Z,92.90
2018-03-14T10:38:04.159Z,94.70
2018-03-14T10:40:32.373Z,94.10
2018-03-14T10:42:59.808Z,94.20
2018-03-14T10:45:27.385Z,95.40
2018-03-14T10:47:54.908Z,95.90
2018-03-14T10:50:23.190Z,94.50
2018-03-14T10:52:51.399Z,93.40
2018-03-14T10:55:18.831Z,93.50
2018-03-14T10:57:46.270Z,96.70
2018-03-14T11:00:20.117Z,96.00
2018-03-14T11:05:54.073Z,93.90
2018-03-14T11:08:21.522Z,95.70
2018-03-14T11:10:49.747Z,95.90
2018-03-14T11:13:17.981Z,94.00
2018-03-14T11:15:45.418Z,94.00
2018-03-14T11:18:12.937Z,97.20
2018-03-14T11:20:41.157Z,94.60
2018-03-14T11:23:08.600Z,94.60
2018-03-14T11:25:36.080Z,95.70
2018-03-14T11:28:03.597Z,95.50
2018-03-14T11:30:31.796Z,96.90
2018-03-14T11:32:59.234Z,96.80
2018-03-14T11:35:26.681Z,97.10
2018-03-14T11:37:54.121Z,92.70
2018-03-14T11:40:22.332Z,93.50
2018-03-14T11:42:49.870Z,93.50
2018-03-14T11:45:18.087Z,91.50
2018-03-14T11:47:45.533Z,91.60
2018-03-14T11:50:12.969Z,93.30
2018-03-14T11:52:40.405Z,89.60
2018-03-14T11:55:08.817Z,94.50
2018-03-14T11:57:36.262Z,94.50
2018-03-14T12:00:03.697Z,93.50
2018-03-14T12:02:32.025Z,91.40
2018-03-14T12:04:59.474Z,91.30
2018-03-14T12:07:26.972Z,92.90
2018-03-14T12:09:54.362Z,93.20
2018-03-14T12:12:21.904Z,93.30
2018-03-14T12:14:50.946Z,91.40
2018-03-14T12:17:18.393Z,91.70
2018-03-14T12:19:45.930Z,93.70
2018-03-14T12:22:19.964Z,93.00
2018-03-14T12:24:47.401Z,92.90
2018-03-14T12:27:14.857Z,87.70
2018-03-14T12:29:43.058Z,91.20
2018-03-14T12:32:10.511Z,91.20
2018-03-14T12:34:37.952Z,91.90
2018-03-14T12:37:05.390Z,92.90
2018-03-14T12:39:33.597Z,94.20
2018-03-14T12:42:01.037Z,94.10
2018-03-14T12:44:28.492Z,93.60
2018-03-14T12:46:56.713Z,92.50
2018-03-14T12:49:24.162Z,92.60
2018-03-14T12:51:51.593Z,93.40
2018-03-14T12:54:19.042Z,95.00
2018-03-14T12:56:46.477Z,93.70
2018-03-14T12:59:14.687Z,93.50
2018-03-14T13:01:43.145Z,93.50
2018-03-14T13:04:11.351Z,94.80
2018-03-14T13:06:38.796Z,94.80
2018-03-14T13:09:06.229Z,92.90
2018-03-14T13:11:34.454Z,94.40
2018-03-14T13:14:01.971Z,94.40
2018-03-14T13:16:30.179Z,95.60
2018-03-14T13:18:57.732Z,95.50
2018-03-14T13:21:25.172Z,94.90
2018-03-14T13:23:52.613Z,94.90
2018-03-14T13:26:20.822Z,97.00
2018-03-14T13:28:48.272Z,96.90
2018-03-14T13:31:15.716Z,97.20
2018-03-14T13:33:43.262Z,94.40
2018-03-14T13:36:11.485Z,93.40
2018-03-14T13:38:38.929Z,93.30
2018-03-14T13:41:06.373Z,92.80
2018-03-14T13:43:33.809Z,93.10
2018-03-14T13:46:02.039Z,93.20
2018-03-14T13:48:29.493Z,93.20
2018-03-14T13:50:56.984Z,93.50
2018-03-14T13:53:24.376Z,96.80
2018-03-14T13:55:51.824Z,94.90
2018-03-14T13:58:19.307Z,93.80
2018-03-14T14:00:47.480Z,94.00
2018-03-14T14:03:15.925Z,94.00
2018-03-14T14:05:44.131Z,91.50
2018-03-14T14:08:11.578Z,91.40
2018-03-14T14:10:39.018Z,92.80
2018-03-14T14:13:07.242Z,91.20
2018-03-14T14:15:34.692Z,91.20
2018-03-14T14:18:02.140Z,91.20
2018-03-14T14:20:29.577Z,92.00
2018-03-14T14:22:57.016Z,91.90
2018-03-14T14:25:25.287Z,92.50
2018-03-14T14:27:52.717Z,92.50
2018-03-14T14:30:20.175Z,93.20
2018-03-14T14:32:47.620Z,95.10
2018-03-14T14:35:15.067Z,95.50
2018-03-14T14:37:42.578Z,96.70
2018-03-14T14:40:10.792Z,94.40
2018-03-14T14:42:38.234Z,94.30
2018-03-14T14:45:05.758Z,94.00
2018-03-14T14:47:33.198Z,94.10
2018-03-14T14:50:00.641Z,94.00
2018-03-14T14:52:28.124Z,94.40
2018-03-14T14:54:56.418Z,92.70
2018-03-14T14:57:24.627Z,91.80
2018-03-14T14:59:52.073Z,91.80
2018-03-14T15:02:19.521Z,91.90
2018-03-14T15:04:47.729Z,93.80
2018-03-14T15:07:15.175Z,93.80
2018-03-14T15:09:42.614Z,92.90
2018-03-14T15:12:10.056Z,92.40
2018-03-14T15:14:38.264Z,92.70
2018-03-14T15:17:05.855Z,92.70
2018-03-14T15:19:33.295Z,92.50
2018-03-14T15:22:00.862Z,91.80
2018-03-14T15:24:29.065Z,92.40
2018-03-14T15:26:56.625Z,92.40
2018-03-14T15:29:24.065Z,92.30
2018-03-14T15:31:51.637Z,91.10
2018-03-14T15:34:19.076Z,92.20
2018-03-14T15:36:46.526Z,92.00
2018-03-14T15:39:13.976Z,92.60
2018-03-14T15:41:41.408Z,92.40
2018-03-14T15:44:08.855Z,93.20
2018-03-14T15:46:36.296Z,93.00
2018-03-14T15:49:04.496Z,91.60
2018-03-14T15:51:31.932Z,91.30
2018-03-14T15:54:00.161Z,91.50
2018-03-14T15:56:27.592Z,91.50
2018-03-14T15:58:55.031Z,92.00
2018-03-14T16:01:22.460Z,92.00
2018-03-14T16:03:49.907Z,92.20
2018-03-14T16:06:17.358Z,92.30
2018-03-14T16:08:44.823Z,92.40
2018-03-14T16:11:12.259Z,92.30
2018-03-14T16:13:39.789Z,92.70
2018-03-14T16:16:07.234Z,92.60
2018-03-14T16:18:34.677Z,92.50
2018-03-14T16:21:02.955Z,92.90
2018-03-14T16:23:31.176Z,93.70
2018-03-14T16:25:58.608Z,93.70
2018-03-14T16:28:26.120Z,94.00
2018-03-14T16:30:53.541Z,94.80
2018-03-14T16:33:20.981Z,94.20
2018-03-14T16:35:48.523Z,94.30
2018-03-14T16:38:16.732Z,94.00
2018-03-14T16:40:44.186Z,94.00
2018-03-14T16:43:11.649Z,94.70
2018-03-14T16:45:39.095Z,94.90
2018-03-14T16:48:06.514Z,94.90
2018-03-14T16:50:34.726Z,94.90
2018-03-14T16:53:02.168Z,94.90
2018-03-14T16:55:29.610Z,94.40
2018-03-14T16:57:57.814Z,94.60
2018-03-14T17:00:25.261Z,94.60
2018-03-14T17:02:52.694Z,94.40
2018-03-14T17:05:20.901Z,95.20
2018-03-14T17:07:48.350Z,95.20
2018-03-14T17:10:15.791Z,95.00
2018-03-14T17:12:43.999Z,94.50
2018-03-14T17:15:11.469Z,94.40
2018-03-14T17:17:38.917Z,94.70
2018-03-14T17:20:06.354Z,94.40
2018-03-14T17:22:33.790Z,94.90
2018-03-14T17:25:02.073Z,95.00
2018-03-14T17:27:30.284Z,95.00
2018-03-14T17:29:57.759Z,95.00
2018-03-14T17:32:25.338Z,95.40
2018-03-14T17:34:52.760Z,95.40
2018-03-14T17:37:20.212Z,95.50
2018-03-14T17:39:47.718Z,95.90
2018-03-14T17:42:15.156Z,96.10
2018-03-14T17:44:42.601Z,96.70
2018-03-14T17:47:10.049Z,96.10
2018-03-14T17:49:37.485Z,96.20
2018-03-14T17:52:04.937Z,96.10
2018-03-14T17:54:35.020Z,96.20
2018-03-14T17:57:02.466Z,96.10
2018-03-14T17:59:31.048Z,96.00
2018-03-14T18:01:58.486Z,96.60
2018-03-14T18:04:25.925Z,96.50
2018-03-14T18:06:53.369Z,96.40
2018-03-14T18:09:20.805Z,96.50
2018-03-14T18:11:49.020Z,97.10
2018-03-14T18:14:16.461Z,97.10
2018-03-14T18:16:44.926Z,96.60
2018-03-14T18:19:13.193Z,96.60
2018-03-14T18:21:41.407Z,96.90
2018-03-14T18:24:08.863Z,96.90
2018-03-14T18:26:36.311Z,97.40
2018-03-14T18:29:04.771Z,96.80
2018-03-14T18:31:32.974Z,97.40
2018-03-14T18:34:00.427Z,97.00
2018-03-14T18:36:27.865Z,97.20
2018-03-14T18:38:55.332Z,97.50
2018-03-14T18:41:22.753Z,97.50
2018-03-14T18:43:50.193Z,98.10
2018-03-14T18:46:17.631Z,98.40
2018-03-14T18:48:45.075Z,98.60
2018-03-14T18:51:12.505Z,98.50
2018-03-14T18:53:40.716Z,98.80
2018-03-14T18:56:08.154Z,98.80
2018-03-14T18:58:35.592Z,99.10
2018-03-14T19:01:03.829Z,99.40
2018-03-14T19:03:31.225Z,99.50
2018-03-14T19:05:59.413Z,99.80
2018-03-14T19:08:26.904Z,99.80
2018-03-14T19:10:54.339Z,99.50
2018-03-14T19:13:21.778Z,99.80
2018-03-14T19:15:49.228Z,99.90
2018-03-14T19:18:17.424Z,99.90
2018-03-14T19:20:44.853Z,99.90
2018-03-14T19:23:13.071Z,99.90
2018-03-14T19:25:40.511Z,99.90
2018-03-14T19:28:07.954Z,99.90
2018-03-14T19:30:35.378Z,99.90
2018-03-14T19:33:02.826Z,99.90
2018-03-14T19:35:30.296Z,99.90
2018-03-14T19:37:57.744Z,99.90
2018-03-14T19:40:25.194Z,99.90
2018-03-14T19:42:52.617Z,99.90
2018-03-14T19:45:20.074Z,99.90
2018-03-14T19:47:47.517Z,99.90
2018-03-14T19:50:14.963Z,99.90
2018-03-14T19:52:42.394Z,99.90
2018-03-14T19:55:09.833Z,99.90
2018-03-14T19:57:37.306Z,99.90
2018-03-14T20:00:04.773Z,99.90
2018-03-14T20:02:32.972Z,99.90
2018-03-14T20:05:00.426Z,99.90
2018-03-14T20:07:27.885Z,99.90
2018-03-14T20:09:55.334Z,99.90
2018-03-14T20:12:23.569Z,99.90
2018-03-14T20:14:51.006Z,99.90
2018-03-14T20:17:18.437Z,99.90
2018-03-14T20:19:45.898Z,99.90
2018-03-14T20:22:13.329Z,99.90
2018-03-14T20:24:41.554Z,99.90
2018-03-14T20:27:09.007Z,99.90
2018-03-14T20:29:36.447Z,99.90
2018-03-14T20:32:03.906Z,99.90
2018-03-14T20:34:32.195Z,99.90
2018-03-14T20:36:59.681Z,99.90
2018-03-14T20:39:27.121Z,99.90
2018-03-14T20:41:54.562Z,99.90
2018-03-14T20:44:22.014Z,99.90
2018-03-14T20:46:49.440Z,99.90
2018-03-14T20:49:17.651Z,99.90
2018-03-14T20:51:45.085Z,99.90
2018-03-14T20:54:12.522Z,99.90
2018-03-14T20:56:40.729Z,99.90
2018-03-14T20:59:08.175Z,99.90
2018-03-14T21:01:36.442Z,99.90
2018-03-14T21:04:05.646Z,99.90
2018-03-14T21:06:33.855Z,99.90
2018-03-14T21:09:01.377Z,99.90
2018-03-14T21:11:28.818Z,99.90
2018-03-14T21:13:57.025Z,99.90
2018-03-14T21:16:24.454Z,99.90
2018-03-14T21:18:52.672Z,99.90
2018-03-14T21:21:21.108Z,99.90
2018-03-14T21:23:49.311Z,99.90
2018-03-14T21:26:16.749Z,99.90
2018-03-14T21:28:44.180Z,99.90
2018-03-14T21:31:11.700Z,99.90
2018-03-14T21:33:39.056Z,99.90
2018-03-14T21:36:06.512Z,99.90
2018-03-14T21:38:33.952Z,99.90
2018-03-14T21:41:02.150Z,99.90
2018-03-14T21:43:29.594Z,99.90
2018-03-14T21:45:57.042Z,99.90
2018-03-14T21:48:24.481Z,99.90
2018-03-14T21:50:52.701Z,99.90
2018-03-14T21:53:20.157Z,99.90
2018-03-14T21:55:47.618Z,99.90
2018-03-14T21:58:15.040Z,99.90
2018-03-14T22:00:42.489Z,99.90
2018-03-14T22:03:09.972Z,99.90
2018-03-14T22:05:37.597Z,99.90
2018-03-14T22:08:05.806Z,99.90
2018-03-14T22:10:33.257Z,99.90
2018-03-14T22:13:00.720Z,99.90
2018-03-14T22:15:28.899Z,99.90
2018-03-14T22:17:56.340Z,99.90
2018-03-14T22:20:23.784Z,99.90
2018-03-14T22:22:51.995Z,99.90
2018-03-14T22:25:19.445Z,99.90
2018-03-14T22:27:46.890Z,99.90
2018-03-14T22:30:14.319Z,99.90
2018-03-14T22:32:42.532Z,99.90
2018-03-14T22:35:09.984Z,99.90
2018-03-14T22:37:37.412Z,99.90
2018-03-14T22:40:05.623Z,99.90
2018-03-14T22:42:33.077Z,99.90
2018-03-14T22:45:00.510Z,99.90
2018-03-14T22:47:27.950Z,99.90
2018-03-14T22:49:56.149Z,99.90
2018-03-14T22:52:23.590Z,99.90
2018-03-14T22:54:51.807Z,99.90
2018-03-14T22:57:19.284Z,99.90
2018-03-14T22:59:46.713Z,99.90
2018-03-14T23:02:14.162Z,99.90
2018-03-14T23:04:41.600Z,99.90
2018-03-14T23:07:09.048Z,99.90
2018-03-14T23:09:37.257Z,99.90
2018-03-14T23:12:04.698Z,99.90
2018-03-14T23:14:32.140Z,99.90
2018-03-14T23:17:00.345Z,99.90
2018-03-14T23:19:27.788Z,99.90
2018-03-14T23:21:56.026Z,99.90
2018-03-14T23:24:23.470Z,99.90
2018-03-14T23:26:50.913Z,99.90
2018-03-14T23:29:18.357Z,99.90
2018-03-14T23:31:45.800Z,99.90
2018-03-14T23:34:13.236Z,99.90
2018-03-14T23:36:40.684Z,99.90
2018-03-14T23:39:08.898Z,99.90
2018-03-14T23:41:37.244Z,99.90
2018-03-14T23:44:05.449Z,99.90
2018-03-14T23:46:32.890Z,99.90
2018-03-14T23:49:00.320Z,99.90
2018-03-14T23:51:28.709Z,99.90
2018-03-14T23:53:56.909Z,99.90
2018-03-14T23:56:24.362Z,99.90
2018-03-14T23:58:51.793Z,99.90
